createdAt,value
2023-03-28T00:01:14.043Z,101518.53
2023-03-28T00:03:41.126Z,101520.50
2023-03-28T00:06:13.834Z,101517.94
2023-03-28T00:08:41.572Z,101530.38
2023-03-28T00:11:18.641Z,101524.38
2023-03-28T00:14:02.116Z,101530.19
2023-03-28T00:16:35.500Z,101529.53
2023-03-28T00:19:06.419Z,101543.31
2023-03-28T00:21:46.752Z,101536.44
2023-03-28T00:24:21.437Z,101549.72
2023-03-28T00:26:54.387Z,101564.34
2023-03-28T00:29:23.040Z,101557.03
2023-03-28T00:31:55.618Z,101568.84
2023-03-28T00:34:25.789Z,101569.81
2023-03-28T00:36:55.056Z,101577.03
2023-03-28T00:39:22.216Z,101576.16
2023-03-28T00:41:49.448Z,101578.53
2023-03-28T00:44:38.304Z,101589.56
2023-03-28T00:47:06.363Z,101594.72
2023-03-28T00:49:35.772Z,101597.53
2023-03-28T00:52:07.594Z,101590.97
2023-03-28T00:54:40.295Z,101595.06
2023-03-28T00:57:12.916Z,101602.13
2023-03-28T00:59:42.080Z,101609.00
2023-03-28T01:02:09.017Z,101601.69
2023-03-28T01:04:59.431Z,101606.84
2023-03-28T01:07:40.901Z,101610.94
2023-03-28T01:10:09.194Z,101612.53
2023-03-28T01:12:36.875Z,101618.53
2023-03-28T01:15:04.692Z,101619.50
2023-03-28T01:17:34.268Z,101622.72
2023-03-28T01:20:53.597Z,101624.66
2023-03-28T01:23:32.418Z,101630.91
2023-03-28T01:26:17.694Z,101639.88
2023-03-28T01:29:23.701Z,101638.56
2023-03-28T01:32:22.677Z,101643.53
2023-03-28T01:35:45.293Z,101650.03
2023-03-28T01:38:44.819Z,101658.84
2023-03-28T01:41:42.418Z,101652.69
2023-03-28T01:44:36.990Z,101655.72
2023-03-28T01:47:16.806Z,101660.22
2023-03-28T01:50:10.785Z,101661.59
2023-03-28T01:52:59.659Z,101659.75
2023-03-28T01:56:12.119Z,101674.59
2023-03-28T01:59:15.819Z,101679.91
2023-03-28T02:01:50.471Z,101687.78
2023-03-28T02:04:21.467Z,101686.13
2023-03-28T02:06:50.199Z,101686.69
2023-03-28T02:09:24.747Z,101680.00
2023-03-28T02:12:02.094Z,101688.00
2023-03-28T02:14:38.698Z,101691.72
2023-03-28T02:17:15.699Z,101697.72
2023-03-28T02:19:59.755Z,101701.28
2023-03-28T02:22:36.483Z,101704.25
2023-03-28T02:25:04.154Z,101703.19
2023-03-28T02:27:32.873Z,101706.84
2023-03-28T02:30:00.293Z,101706.66
2023-03-28T02:32:33.871Z,101696.69
2023-03-28T02:35:04.445Z,101704.34
2023-03-28T02:37:49.882Z,101711.66
2023-03-28T02:40:41.337Z,101712.44
2023-03-28T02:43:26.284Z,101710.75
2023-03-28T02:46:12.614Z,101716.47
2023-03-28T02:49:12.853Z,101718.75
2023-03-28T02:52:00.168Z,101720.50
2023-03-28T02:54:51.697Z,101726.63
2023-03-28T02:57:31.463Z,101724.91
2023-03-28T03:00:12.410Z,101730.44
2023-03-28T03:02:51.700Z,101733.31
2023-03-28T03:05:20.675Z,101736.00
2023-03-28T03:07:49.826Z,101734.75
2023-03-28T03:10:17.861Z,101738.78
2023-03-28T03:12:45.390Z,101736.38
2023-03-28T03:15:12.311Z,101738.19
2023-03-28T03:17:41.695Z,101741.34
2023-03-28T03:20:09.364Z,101747.38
2023-03-28T03:22:43.287Z,101744.78
2023-03-28T03:25:14.608Z,101746.72
2023-03-28T03:27:41.711Z,101751.13
2023-03-28T03:30:10.068Z,101743.25
2023-03-28T03:32:38.631Z,101752.44
2023-03-28T03:35:11.087Z,101754.84
2023-03-28T03:37:38.011Z,101750.53
2023-03-28T03:40:05.824Z,101758.56
2023-03-28T03:42:37.109Z,101754.28
2023-03-28T03:45:04.815Z,101761.81
2023-03-28T03:47:32.230Z,101766.59
2023-03-28T03:50:02.159Z,101774.81
2023-03-28T03:52:28.968Z,101771.63
2023-03-28T03:54:55.785Z,101766.47
2023-03-28T03:57:25.008Z,101776.06
2023-03-28T03:59:57.212Z,101772.88
2023-03-28T04:02:24.199Z,101780.19
2023-03-28T04:04:54.250Z,101775.56
2023-03-28T04:07:21.300Z,101778.91
2023-03-28T04:09:50.656Z,101770.97
2023-03-28T04:12:18.531Z,101777.00
2023-03-28T04:14:48.031Z,101779.66
2023-03-28T04:17:16.027Z,101770.09
2023-03-28T04:19:46.572Z,101775.97
2023-03-28T04:22:13.818Z,101787.19
2023-03-28T04:24:41.749Z,101775.53
2023-03-28T04:27:10.885Z,101781.22
2023-03-28T04:29:39.384Z,101790.22
2023-03-28T04:32:12.926Z,101792.28
2023-03-28T04:34:39.969Z,101797.78
2023-03-28T04:37:06.891Z,101791.72
2023-03-28T04:39:37.340Z,101793.38
2023-03-28T04:42:08.368Z,101793.78
2023-03-28T04:44:35.389Z,101798.69
2023-03-28T04:47:02.284Z,101801.03
2023-03-28T04:49:29.271Z,101798.81
2023-03-28T04:51:58.634Z,101803.34
2023-03-28T04:54:25.830Z,101805.94
2023-03-28T04:56:55.949Z,101810.53
2023-03-28T04:59:23.004Z,101817.88
2023-03-28T05:01:52.449Z,101816.63
2023-03-28T05:04:26.667Z,101818.00
2023-03-28T05:06:56.320Z,101817.63
2023-03-28T05:09:26.425Z,101826.69
2023-03-28T05:11:53.403Z,101820.13
2023-03-28T05:14:20.767Z,101827.78
2023-03-28T05:16:47.707Z,101832.38
2023-03-28T05:19:14.689Z,101831.88
2023-03-28T05:21:41.605Z,101833.56
2023-03-28T05:24:13.161Z,101838.94
2023-03-28T05:26:40.257Z,101841.34
2023-03-28T05:29:09.752Z,101852.72
2023-03-28T05:31:39.289Z,101853.78
2023-03-28T05:34:11.112Z,101865.13
2023-03-28T05:36:38.053Z,101865.91
2023-03-28T05:39:05.231Z,101872.34
2023-03-28T05:41:32.237Z,101874.69
2023-03-28T05:43:59.065Z,101868.09
2023-03-28T05:46:26.020Z,101869.84
2023-03-28T05:48:52.963Z,101873.69
2023-03-28T05:51:20.014Z,101873.50
2023-03-28T05:53:49.440Z,101875.69
2023-03-28T05:56:16.313Z,101872.28
2023-03-28T05:58:43.742Z,101892.94
2023-03-28T06:01:13.860Z,101891.69
2023-03-28T06:03:42.685Z,101884.28
2023-03-28T06:06:09.805Z,101891.56
2023-03-28T06:08:39.308Z,101883.75
2023-03-28T06:11:06.846Z,101891.13
2023-03-28T06:13:34.216Z,101884.53
2023-03-28T06:16:01.056Z,101883.50
2023-03-28T06:18:32.514Z,101889.44
2023-03-28T06:21:02.259Z,101889.84
2023-03-28T06:23:31.868Z,101892.47
2023-03-28T06:26:02.316Z,101889.03
2023-03-28T06:28:31.731Z,101885.31
2023-03-28T06:30:59.065Z,101882.09
2023-03-28T06:33:26.279Z,101882.66
2023-03-28T06:35:53.244Z,101889.59
2023-03-28T06:38:23.339Z,101884.97
2023-03-28T06:40:55.218Z,101889.34
2023-03-28T06:43:24.347Z,101895.13
2023-03-28T06:45:56.390Z,101890.13
2023-03-28T06:48:33.059Z,101896.41
2023-03-28T06:51:01.703Z,101905.69
2023-03-28T06:53:29.107Z,101907.69
2023-03-28T06:55:59.825Z,101912.03
2023-03-28T06:58:28.996Z,101915.66
2023-03-28T07:00:59.539Z,101914.84
2023-03-28T07:03:30.356Z,101919.72
2023-03-28T07:05:57.956Z,101919.28
2023-03-28T07:08:25.444Z,101922.31
2023-03-28T07:10:52.375Z,101925.91
2023-03-28T07:13:19.294Z,101921.97
2023-03-28T07:15:46.244Z,101919.88
2023-03-28T07:18:13.224Z,101927.41
2023-03-28T07:20:41.596Z,101921.81
2023-03-28T07:23:08.696Z,101923.59
2023-03-28T07:25:38.061Z,101933.91
2023-03-28T07:28:04.939Z,101937.75
2023-03-28T07:30:33.997Z,101939.66
2023-03-28T07:33:12.993Z,101936.28
2023-03-28T07:35:45.752Z,101942.78
2023-03-28T07:38:14.787Z,101945.66
2023-03-28T07:40:41.685Z,101956.78
2023-03-28T07:43:10.835Z,101955.75
2023-03-28T07:45:40.041Z,101963.00
2023-03-28T07:48:07.953Z,101972.47
2023-03-28T07:50:36.567Z,101964.97
2023-03-28T07:53:05.861Z,101977.94
2023-03-28T07:55:39.381Z,101968.28
2023-03-28T07:58:15.588Z,101973.13
2023-03-28T08:00:45.478Z,101969.44
2023-03-28T08:03:16.108Z,101963.75
2023-03-28T08:05:51.963Z,101975.47
2023-03-28T08:08:20.918Z,101975.03
2023-03-28T08:10:54.634Z,101979.72
2023-03-28T08:13:21.524Z,101984.41
2023-03-28T08:15:55.268Z,101984.00
2023-03-28T08:18:25.210Z,101991.91
2023-03-28T08:21:03.113Z,101986.81
2023-03-28T08:23:30.701Z,101979.69
2023-03-28T08:26:06.163Z,101984.56
2023-03-28T08:28:37.709Z,101989.41
2023-03-28T08:31:16.636Z,101997.63
2023-03-28T08:33:52.590Z,101990.00
2023-03-28T08:36:25.083Z,101993.91
2023-03-28T08:38:53.330Z,101996.75
2023-03-28T08:41:57.511Z,101992.25
2023-03-28T08:45:08.857Z,101992.25
2023-03-28T08:48:00.528Z,101988.13
2023-03-28T08:50:34.144Z,101999.34
2023-03-28T08:53:02.712Z,102001.75
2023-03-28T08:55:43.333Z,101993.31
2023-03-28T08:58:23.663Z,101990.66
2023-03-28T09:00:54.253Z,101994.94
2023-03-28T09:03:25.205Z,101996.63
2023-03-28T09:06:02.436Z,102001.75
2023-03-28T09:09:13.093Z,102004.41
2023-03-28T09:12:15.727Z,102012.31
2023-03-28T09:15:07.033Z,102007.16
2023-03-28T09:18:03.837Z,102018.69
2023-03-28T09:20:41.123Z,102015.34
2023-03-28T09:23:42.477Z,102011.44
2023-03-28T09:26:26.068Z,102010.78
2023-03-28T09:29:08.986Z,102014.44
2023-03-28T09:31:46.247Z,102016.53
2023-03-28T09:34:22.933Z,101997.16
2023-03-28T09:36:55.306Z,102002.44
2023-03-28T09:39:38.556Z,102001.94
2023-03-28T09:42:27.295Z,102003.00
2023-03-28T09:45:12.043Z,101993.38
2023-03-28T09:47:39.734Z,101997.59
2023-03-28T09:50:13.738Z,102007.06
2023-03-28T09:52:41.506Z,102000.63
2023-03-28T09:55:27.266Z,102006.06
2023-03-28T09:58:09.189Z,101995.97
2023-03-28T10:00:47.668Z,102001.38
2023-03-28T10:03:32.495Z,102010.59
2023-03-28T10:06:18.141Z,102008.56
2023-03-28T10:08:45.991Z,102012.34
2023-03-28T10:11:15.283Z,102010.31
2023-03-28T10:13:56.522Z,102007.09
2023-03-28T10:16:32.340Z,102010.72
2023-03-28T10:19:02.387Z,102015.97
2023-03-28T10:21:32.521Z,102008.06
2023-03-28T10:24:07.450Z,102009.66
2023-03-28T10:26:39.249Z,102009.75
2023-03-28T10:29:12.366Z,102011.97
2023-03-28T10:31:40.240Z,102015.56
2023-03-28T10:34:28.237Z,102021.22
2023-03-28T10:36:56.997Z,102016.16
2023-03-28T10:39:28.999Z,102009.59
2023-03-28T10:41:58.670Z,102014.00
2023-03-28T10:44:37.513Z,102029.66
2023-03-28T10:47:13.782Z,102033.34
2023-03-28T10:49:52.870Z,102033.28
2023-03-28T10:52:22.605Z,102038.44
2023-03-28T10:55:23.924Z,102042.88
2023-03-28T10:58:18.181Z,102041.06
2023-03-28T11:01:04.809Z,102041.59
2023-03-28T11:04:41.467Z,102033.88
2023-03-28T11:07:17.091Z,102030.72
2023-03-28T11:09:56.318Z,102030.84
2023-03-28T11:12:54.649Z,102028.91
2023-03-28T11:15:57.028Z,102023.63
2023-03-28T11:18:46.286Z,102012.88
2023-03-28T11:21:31.382Z,102019.00
2023-03-28T11:24:19.512Z,102020.97
2023-03-28T11:27:31.839Z,102022.22
2023-03-28T11:30:15.798Z,102021.72
2023-03-28T11:33:02.822Z,102024.97
2023-03-28T11:35:41.110Z,102025.53
2023-03-28T11:38:39.944Z,102019.69
2023-03-28T11:41:15.721Z,102016.56
2023-03-28T11:43:58.362Z,102021.88
2023-03-28T11:46:38.141Z,102018.28
2023-03-28T11:49:26.194Z,102022.28
2023-03-28T11:52:35.500Z,102015.84
2023-03-28T11:55:06.627Z,102013.28
2023-03-28T11:58:03.770Z,102017.28
2023-03-28T12:01:08.683Z,102004.78
2023-03-28T12:04:10.440Z,102001.53
2023-03-28T12:07:03.172Z,101996.66
2023-03-28T12:10:19.588Z,102001.63
2023-03-28T12:13:01.744Z,101997.97
2023-03-28T12:15:45.225Z,101999.38
2023-03-28T12:18:41.447Z,102009.75
2023-03-28T12:21:34.718Z,102006.34
2023-03-28T12:24:15.904Z,101996.06
2023-03-28T12:27:25.452Z,102003.84
2023-03-28T12:30:07.228Z,101999.50
2023-03-28T12:33:14.463Z,101992.94
2023-03-28T12:35:50.143Z,101985.69
2023-03-28T12:38:40.488Z,101988.91
2023-03-28T12:41:19.244Z,101996.22
2023-03-28T12:44:24.495Z,102003.97
2023-03-28T12:47:17.061Z,102000.47
2023-03-28T12:49:52.526Z,102011.56
2023-03-28T12:52:37.951Z,102009.16
2023-03-28T12:55:17.436Z,102015.16
2023-03-28T12:57:46.952Z,102006.81
2023-03-28T13:00:32.754Z,102012.78
2023-03-28T13:03:40.073Z,102009.75
2023-03-28T13:06:30.700Z,101999.81
2023-03-28T13:09:31.664Z,102004.25
2023-03-28T13:12:20.297Z,101998.41
2023-03-28T13:15:06.699Z,102005.19
2023-03-28T13:17:37.801Z,102003.00
2023-03-28T13:20:26.098Z,101997.00
2023-03-28T13:22:58.592Z,102003.34
2023-03-28T13:25:32.490Z,101997.53
2023-03-28T13:28:24.188Z,101998.19
2023-03-28T13:31:18.511Z,101995.03
2023-03-28T13:34:01.751Z,101994.34
2023-03-28T13:36:34.084Z,101996.81
2023-03-28T13:39:27.510Z,101994.16
2023-03-28T13:41:58.116Z,101989.81
2023-03-28T13:44:39.780Z,101977.44
2023-03-28T13:47:14.110Z,101972.88
2023-03-28T13:49:53.238Z,101971.03
2023-03-28T13:52:23.564Z,101972.19
2023-03-28T13:54:59.648Z,101969.94
2023-03-28T13:57:29.785Z,101969.38
2023-03-28T14:00:06.904Z,101959.81
2023-03-28T14:02:47.856Z,101962.13
2023-03-28T14:05:27.542Z,101954.69
2023-03-28T14:08:14.326Z,101947.13
2023-03-28T14:10:46.111Z,101957.53
2023-03-28T14:13:19.559Z,101952.69
2023-03-28T14:15:46.968Z,101938.78
2023-03-28T14:18:34.996Z,101942.69
2023-03-28T14:21:02.658Z,101939.25
2023-03-28T14:23:42.475Z,101948.00
2023-03-28T14:26:19.151Z,101931.13
2023-03-28T14:28:47.128Z,101934.41
2023-03-28T14:31:31.423Z,101926.31
2023-03-28T14:34:16.399Z,101919.53
2023-03-28T14:37:00.928Z,101911.28
2023-03-28T14:39:34.090Z,101909.13
2023-03-28T14:42:08.415Z,101898.09
2023-03-28T14:44:41.311Z,101896.31
2023-03-28T14:47:14.858Z,101888.41
2023-03-28T14:49:42.199Z,101890.72
2023-03-28T14:52:25.655Z,101892.19
2023-03-28T14:54:53.039Z,101882.13
2023-03-28T14:57:22.752Z,101887.34
2023-03-28T14:59:52.488Z,101878.00
2023-03-28T15:02:39.481Z,101881.25
2023-03-28T15:05:10.461Z,101877.00
2023-03-28T15:07:42.168Z,101869.03
2023-03-28T15:10:18.398Z,101869.91
2023-03-28T15:12:47.907Z,101864.78
2023-03-28T15:15:24.966Z,101861.38
2023-03-28T15:17:59.860Z,101858.47
2023-03-28T15:20:37.330Z,101853.38
2023-03-28T15:23:12.377Z,101856.84
2023-03-28T15:25:39.298Z,101849.19
2023-03-28T15:28:10.588Z,101846.00
2023-03-28T15:30:43.860Z,101839.38
2023-03-28T15:33:26.240Z,101837.78
2023-03-28T15:36:32.301Z,101838.66
2023-03-28T15:39:17.162Z,101840.31
2023-03-28T15:41:48.894Z,101836.50
2023-03-28T15:44:39.544Z,101825.44
2023-03-28T15:47:21.367Z,101831.75
2023-03-28T15:49:50.779Z,101820.91
2023-03-28T15:52:25.665Z,101824.09
2023-03-28T15:54:56.635Z,101827.00
2023-03-28T15:57:30.194Z,101813.28
2023-03-28T15:59:58.738Z,101807.75
2023-03-28T16:02:37.533Z,101803.97
2023-03-28T16:05:17.846Z,101798.66
2023-03-28T16:07:52.491Z,101804.28
2023-03-28T16:10:33.058Z,101799.75
2023-03-28T16:13:08.819Z,101789.91
2023-03-28T16:15:41.553Z,101794.06
2023-03-28T16:18:09.064Z,101789.94
2023-03-28T16:20:43.332Z,101786.78
2023-03-28T16:23:14.602Z,101783.25
2023-03-28T16:25:49.165Z,101776.41
2023-03-28T16:28:21.277Z,101781.34
2023-03-28T16:31:03.825Z,101775.78
2023-03-28T16:33:37.426Z,101780.59
2023-03-28T16:36:05.500Z,101776.81
2023-03-28T16:38:41.468Z,101772.16
2023-03-28T16:41:12.498Z,101764.22
2023-03-28T16:43:42.956Z,101769.22
2023-03-28T16:46:13.093Z,101758.09
2023-03-28T16:48:42.730Z,101765.22
2023-03-28T16:51:10.333Z,101767.63
2023-03-28T16:53:45.064Z,101758.06
2023-03-28T16:56:18.788Z,101753.34
2023-03-28T16:58:53.755Z,101758.91
2023-03-28T17:01:30.894Z,101762.50
2023-03-28T17:04:04.090Z,101759.75
2023-03-28T17:06:37.580Z,101759.72
2023-03-28T17:09:10.073Z,101751.06
2023-03-28T17:11:37.984Z,101756.59
2023-03-28T17:14:11.071Z,101758.06
2023-03-28T17:16:40.851Z,101768.06
2023-03-28T17:19:13.847Z,101767.94
2023-03-28T17:21:41.129Z,101764.97
2023-03-28T17:24:11.583Z,101757.47
2023-03-28T17:26:41.474Z,101764.19
2023-03-28T17:29:12.159Z,101764.66
2023-03-28T17:31:41.884Z,101759.59
2023-03-28T17:34:10.188Z,101758.91
2023-03-28T17:36:37.896Z,101763.69
2023-03-28T17:39:04.891Z,101768.22
2023-03-28T17:41:32.276Z,101757.41
2023-03-28T17:43:59.887Z,101759.63
2023-03-28T17:46:29.167Z,101764.19
2023-03-28T17:48:56.112Z,101763.34
2023-03-28T17:51:23.221Z,101770.94
2023-03-28T17:53:53.311Z,101764.91
2023-03-28T17:56:24.175Z,101770.53
2023-03-28T17:58:53.525Z,101769.53
2023-03-28T18:01:23.271Z,101767.13
2023-03-28T18:03:50.335Z,101763.19
2023-03-28T18:06:19.902Z,101760.91
2023-03-28T18:08:47.394Z,101763.34
2023-03-28T18:11:20.094Z,101752.72
2023-03-28T18:13:50.125Z,101760.25
2023-03-28T18:16:19.562Z,101756.34
2023-03-28T18:18:49.292Z,101749.81
2023-03-28T18:21:20.188Z,101759.13
2023-03-28T18:23:49.301Z,101762.16
2023-03-28T18:26:17.160Z,101756.66
2023-03-28T18:28:45.585Z,101760.75
2023-03-28T18:31:18.077Z,101757.66
2023-03-28T18:33:46.882Z,101759.81
2023-03-28T18:36:15.279Z,101751.97
2023-03-28T18:38:46.977Z,101761.47
2023-03-28T18:41:17.707Z,101761.13
2023-03-28T18:43:46.298Z,101757.41
2023-03-28T18:46:16.177Z,101753.44
2023-03-28T18:48:47.328Z,101755.34
2023-03-28T18:51:14.364Z,101742.69
2023-03-28T18:53:45.473Z,101743.09
2023-03-28T18:56:17.351Z,101737.91
2023-03-28T18:58:47.457Z,101725.97
2023-03-28T19:01:19.024Z,101728.91
2023-03-28T19:03:48.518Z,101729.25
2023-03-28T19:06:17.346Z,101727.53
2023-03-28T19:08:45.189Z,101729.00
2023-03-28T19:11:17.448Z,101732.03
2023-03-28T19:13:46.213Z,101733.53
2023-03-28T19:16:21.759Z,101724.38
2023-03-28T19:18:48.994Z,101726.28
2023-03-28T19:21:19.366Z,101721.34
2023-03-28T19:23:49.424Z,101723.78
2023-03-28T19:26:19.414Z,101708.41
2023-03-28T19:28:48.236Z,101701.31
2023-03-28T19:31:17.472Z,101706.47
2023-03-28T19:33:45.537Z,101708.88
2023-03-28T19:36:14.018Z,101705.63
2023-03-28T19:38:42.077Z,101702.78
2023-03-28T19:41:23.813Z,101696.19
2023-03-28T19:43:52.304Z,101692.06
2023-03-28T19:46:33.852Z,101691.38
2023-03-28T19:49:06.789Z,101703.19
2023-03-28T19:51:36.299Z,101697.38
2023-03-28T19:54:07.030Z,101701.19
2023-03-28T19:56:35.079Z,101701.19
2023-03-28T19:59:03.814Z,101696.69
2023-03-28T20:01:32.198Z,101698.69
2023-03-28T20:04:02.480Z,101697.81
2023-03-28T20:06:31.163Z,101685.66
2023-03-28T20:09:02.148Z,101686.03
2023-03-28T20:11:34.394Z,101675.50
2023-03-28T20:14:02.498Z,101679.06
2023-03-28T20:16:33.172Z,101671.84
2023-03-28T20:19:01.592Z,101664.84
2023-03-28T20:21:30.160Z,101670.13
2023-03-28T20:23:59.111Z,101671.84
2023-03-28T20:26:28.252Z,101666.91
2023-03-28T20:29:00.084Z,101661.50
2023-03-28T20:31:31.734Z,101664.44
2023-03-28T20:34:01.816Z,101657.38
2023-03-28T20:36:28.960Z,101657.38
2023-03-28T20:38:56.487Z,101653.69
2023-03-28T20:41:24.510Z,101649.72
2023-03-28T20:43:53.210Z,101647.84
2023-03-28T20:46:23.659Z,101642.31
2023-03-28T20:48:56.672Z,101642.50
2023-03-28T20:51:23.832Z,101633.19
2023-03-28T20:54:02.288Z,101631.88
2023-03-28T20:56:31.681Z,101634.31
2023-03-28T20:58:59.955Z,101623.16
2023-03-28T21:01:32.778Z,101626.31
2023-03-28T21:04:01.998Z,101623.00
2023-03-28T21:06:34.182Z,101614.75
2023-03-28T21:09:07.140Z,101617.53
2023-03-28T21:11:37.519Z,101612.75
2023-03-28T21:14:10.573Z,101616.63
2023-03-28T21:16:40.933Z,101616.38
2023-03-28T21:19:10.448Z,101605.88
2023-03-28T21:21:37.616Z,101599.75
2023-03-28T21:24:07.568Z,101602.41
2023-03-28T21:26:34.522Z,101594.59
2023-03-28T21:29:01.688Z,101593.00
2023-03-28T21:31:29.589Z,101585.63
2023-03-28T21:33:59.844Z,101591.78
2023-03-28T21:36:28.284Z,101588.72
2023-03-28T21:38:58.937Z,101585.03
2023-03-28T21:41:28.736Z,101582.63
2023-03-28T21:43:56.658Z,101589.72
2023-03-28T21:46:24.068Z,101588.75
2023-03-28T21:48:53.383Z,101573.94
2023-03-28T21:51:20.664Z,101571.22
2023-03-28T21:53:50.826Z,101568.53
2023-03-28T21:56:21.464Z,101569.06
2023-03-28T21:58:48.806Z,101571.38
2023-03-28T22:01:18.308Z,101571.38
2023-03-28T22:03:49.519Z,101574.56
2023-03-28T22:06:18.651Z,101557.03
2023-03-28T22:08:51.733Z,101562.19
2023-03-28T22:11:30.098Z,101554.38
2023-03-28T22:14:04.954Z,101548.13
2023-03-28T22:16:40.122Z,101546.78
2023-03-28T22:19:09.820Z,101553.00
2023-03-28T22:21:37.627Z,101550.56
2023-03-28T22:24:10.227Z,101547.00
2023-03-28T22:26:37.161Z,101547.38
2023-03-28T22:29:05.137Z,101536.84
2023-03-28T22:31:32.376Z,101536.13
2023-03-28T22:33:59.426Z,101536.97
2023-03-28T22:36:29.259Z,101530.22
2023-03-28T22:39:03.337Z,101535.34
2023-03-28T22:41:33.216Z,101527.56
2023-03-28T22:44:00.282Z,101533.06
2023-03-28T22:46:30.030Z,101534.41
2023-03-28T22:49:00.601Z,101527.53
2023-03-28T22:51:28.351Z,101521.31
2023-03-28T22:54:01.787Z,101513.97
2023-03-28T22:56:31.357Z,101508.81
2023-03-28T22:59:01.785Z,101510.66
2023-03-28T23:01:28.956Z,101503.81
2023-03-28T23:03:58.703Z,101499.28
2023-03-28T23:06:27.147Z,101500.00
2023-03-28T23:08:54.107Z,101502.09
2023-03-28T23:11:21.493Z,101497.41
2023-03-28T23:13:48.569Z,101496.19
2023-03-28T23:16:15.621Z,101498.16
2023-03-28T23:18:43.382Z,101496.19
2023-03-28T23:21:13.240Z,101490.97
2023-03-28T23:23:46.492Z,101489.59
2023-03-28T23:26:14.443Z,101486.19
2023-03-28T23:28:41.592Z,101482.75
2023-03-28T23:31:12.986Z,101473.44
2023-03-28T23:33:40.297Z,101469.78
2023-03-28T23:36:10.316Z,101481.66
2023-03-28T23:38:40.525Z,101480.78
2023-03-28T23:41:08.288Z,101485.44
2023-03-28T23:43:35.545Z,101494.81
2023-03-28T23:46:05.790Z,101479.03
2023-03-28T23:48:32.883Z,101490.59
2023-03-28T23:51:02.529Z,101485.81
2023-03-28T23:53:30.349Z,101482.38
2023-03-28T23:55:57.254Z,101483.25
2023-03-28T23:58:24.217Z,101473.81
